»·PEaware :: N247V KLAX-KSAN

N247V :: KLAX-KSAN

FLIGHT INFORMATION

Flight Status: Arrived
Operator: Privately registered:
United States
More flights under this callsign
Pilot: Neil S. (18905)
Aircraft: MOONEY M-20 201 202 205 220 ATS MSE
(M20P)
More flights by this aircraft type
Origin: KLAX Los Angeles Intl
United States
Destination: KSAN San Diego Intl-Lindbergh
United States
More flights between these airports :: More routes between these airports
Route: +
File this flight plan on PilotEdge
Remarks:
Altitude:
(Current/Filed)
5,500ft
Speed:
(Current/Filed)
0kts
Departed: 07-May-18 03:08 PM
Arrived: 07-May-18 04:10 PM
Distance/Time
Traveled:
95nm/1:02
Distance/Time
To Go:
Arrived

Flight Plot

Page will automatically refresh every two minutes.


Map Options




Map Legend


Flown Route
Filed Route
Departure Airport
Arrival Airport
Navaid (VOR, NDB)
Fix

Horizontal Profiles

Position Reports

Time Latitude Longitude Heading Altitude Ground
Speed
07-May-18 14:57 33.932735 -118.399122 21 127ft 0kts
07-May-18 14:58 33.932735 -118.399122 21 127ft 0kts
07-May-18 14:59 33.932735 -118.399122 21 127ft 0kts
07-May-18 15:00 33.932735 -118.399122 21 127ft 0kts
07-May-18 15:01 33.932735 -118.399122 21 127ft 0kts
07-May-18 15:02 33.932898 -118.399050 19 127ft 6kts
07-May-18 15:03 33.934766 -118.395931 83 127ft 19kts
07-May-18 15:04 33.935626 -118.387812 84 127ft 27kts
07-May-18 15:05 33.936317 -118.382864 26 127ft 6kts
07-May-18 15:06 33.936479 -118.382806 8 127ft 0kts
07-May-18 15:07 33.937199 -118.383004 310 127ft 10kts
07-May-18 15:08 33.935441 -118.401394 261 312ft 95kts
07-May-18 15:09 33.933960 -118.436267 266 877ft 110kts
07-May-18 15:10 33.932366 -118.477243 266 1472ft 130kts
07-May-18 15:11 33.930439 -118.520669 264 2068ft 130kts
07-May-18 15:12 33.927866 -118.564070 263 2664ft 130kts
07-May-18 15:13 33.921849 -118.606496 219 3122ft 138kts
07-May-18 15:14 33.880858 -118.605228 174 3120ft 155kts
07-May-18 15:15 33.841002 -118.597390 174 3672ft 141kts
07-May-18 15:16 33.802247 -118.589187 174 4161ft 141kts
07-May-18 15:17 33.762965 -118.580637 174 4651ft 145kts
07-May-18 15:18 33.723142 -118.573110 176 5142ft 144kts
07-May-18 15:19 33.683432 -118.566394 176 5607ft 145kts
07-May-18 15:20 33.640704 -118.559777 176 5626ft 160kts
07-May-18 15:21 33.595337 -118.553389 176 5515ft 164kts
07-May-18 15:22 33.558575 -118.524743 122 5515ft 168kts
07-May-18 15:23 33.533215 -118.477464 126 5510ft 169kts
07-May-18 15:24 33.510504 -118.428329 113 5508ft 169kts
07-May-18 15:25 33.492715 -118.376275 118 5508ft 168kts
07-May-18 15:26 33.466574 -118.330266 129 5511ft 167kts
07-May-18 15:27 33.438589 -118.285879 129 5514ft 166kts
07-May-18 15:28 33.410560 -118.242099 130 5510ft 166kts
07-May-18 15:29 33.382292 -118.198212 130 5509ft 166kts
07-May-18 15:30 33.354331 -118.154706 130 5509ft 166kts
07-May-18 15:31 33.326296 -118.111137 129 5537ft 164kts
07-May-18 15:32 33.298126 -118.067578 129 5541ft 166kts
07-May-18 15:33 33.269791 -118.024118 129 5541ft 166kts
07-May-18 15:34 33.241327 -117.980519 129 5538ft 167kts
07-May-18 15:35 33.212782 -117.936729 129 5535ft 167kts
07-May-18 15:36 33.182891 -117.891016 129 5060ft 184kts
07-May-18 15:37 33.149605 -117.840600 130 3629ft 198kts
07-May-18 15:38 33.119391 -117.794288 129 3524ft 162kts
07-May-18 15:39 33.092487 -117.752524 129 3527ft 156kts
07-May-18 15:40 33.066060 -117.711376 129 3528ft 157kts
07-May-18 15:41 33.039403 -117.669853 129 3528ft 158kts
07-May-18 15:42 33.012710 -117.628234 129 3528ft 158kts
07-May-18 15:43 32.986018 -117.586564 129 3527ft 158kts
07-May-18 15:44 32.962653 -117.543079 88 3524ft 160kts
07-May-18 15:45 32.993981 -117.536864 313 3528ft 147kts
07-May-18 15:46 32.997024 -117.572849 192 3528ft 148kts
07-May-18 15:47 32.962469 -117.546270 126 3524ft 158kts
07-May-18 15:48 32.974075 -117.507649 11 3527ft 151kts
07-May-18 15:49 33.012992 -117.494742 12 3522ft 141kts
07-May-18 15:50 33.043348 -117.465250 47 3523ft 143kts
07-May-18 15:51 33.069147 -117.429529 48 3518ft 139kts
07-May-18 15:52 33.086004 -117.390428 115 3219ft 145kts
07-May-18 15:53 33.065595 -117.348852 124 2659ft 153kts
07-May-18 15:54 33.029835 -117.323733 161 1864ft 150kts
07-May-18 15:55 32.992618 -117.306404 161 1512ft 129kts
07-May-18 15:56 32.961553 -117.291172 163 1510ft 114kts
07-May-18 15:57 32.933170 -117.277116 160 1516ft 108kts
07-May-18 15:58 32.905722 -117.262083 160 1522ft 109kts
07-May-18 15:59 32.875820 -117.246347 160 1088ft 127kts
07-May-18 16:00 32.846016 -117.230548 160 1032ft 106kts
07-May-18 16:01 32.821160 -117.216821 160 1034ft 92kts
07-May-18 16:02 32.797289 -117.207967 180 1039ft 89kts
07-May-18 16:03 32.773910 -117.205530 179 1033ft 75kts
07-May-18 16:04 32.757010 -117.194006 105 1038ft 85kts
07-May-18 16:05 32.751685 -117.166463 105 1028ft 85kts
07-May-18 16:06 32.746349 -117.138854 106 1033ft 85kts
07-May-18 16:07 32.727987 -117.130241 189 914ft 78kts
07-May-18 16:08 32.721779 -117.146937 293 667ft 75kts
07-May-18 16:09 32.728900 -117.170673 283 260ft 77kts
07-May-18 16:10 32.733655 -117.190194 289 19ft 24kts
07-May-18 16:11 32.734630 -117.190777 34 19ft 0kts
07-May-18 16:12 32.734722 -117.189668 106 19ft 11kts
07-May-18 16:13 32.733360 -117.183922 107 19ft 23kts
07-May-18 16:14 32.733397 -117.178412 142 19ft 0kts
07-May-18 16:15 32.733394 -117.178410 142 19ft 0kts
07-May-18 16:16 32.733394 -117.178410 142 19ft 0kts

Navigation Log

Ident Type
1. KLAX Airport
2. KSAN Airport